createdAt,value
2023-04-16T00:02:24.862Z,2.33
2023-04-16T00:04:54.345Z,2.38
2023-04-16T00:07:24.399Z,2.42
2023-04-16T00:09:53.391Z,2.13
2023-04-16T00:12:24.066Z,2.05
2023-04-16T00:14:54.314Z,2.45
2023-04-16T00:17:22.960Z,2.75
2023-04-16T00:19:51.801Z,3.00
2023-04-16T00:22:20.849Z,3.08
2023-04-16T00:24:49.926Z,3.40
2023-04-16T00:27:18.617Z,3.17
2023-04-16T00:29:48.947Z,3.00
2023-04-16T00:32:18.371Z,2.75
2023-04-16T00:34:47.174Z,2.95
2023-04-16T00:37:15.947Z,2.88
2023-04-16T00:39:44.955Z,2.65
2023-04-16T00:42:13.806Z,2.80
2023-04-16T00:44:42.414Z,2.80
2023-04-16T00:47:13.064Z,3.05
2023-04-16T00:49:42.281Z,2.88
2023-04-16T00:52:14.780Z,3.28
2023-04-16T00:54:43.612Z,3.30
2023-04-16T00:57:12.722Z,3.03
2023-04-16T00:59:42.636Z,3.15
2023-04-16T01:02:13.025Z,3.30
2023-04-16T01:04:43.021Z,3.70
2023-04-16T01:07:12.790Z,3.97
2023-04-16T01:09:41.382Z,3.90
2023-04-16T01:12:09.957Z,3.88
2023-04-16T01:14:38.665Z,3.72
2023-04-16T01:17:07.064Z,3.78
2023-04-16T01:19:37.428Z,4.22
2023-04-16T01:22:08.538Z,4.15
2023-04-16T01:24:37.106Z,4.10
2023-04-16T01:27:05.811Z,4.13
2023-04-16T01:29:35.498Z,4.63
2023-04-16T01:32:04.067Z,4.03
2023-04-16T01:34:32.582Z,3.67
2023-04-16T01:37:01.252Z,3.60
2023-04-16T01:39:31.499Z,4.43
2023-04-16T01:41:59.992Z,3.80
2023-04-16T01:44:28.891Z,4.15
2023-04-16T01:46:57.255Z,3.92
2023-04-16T01:49:26.264Z,3.60
2023-04-16T01:51:54.704Z,4.32
2023-04-16T01:54:23.241Z,4.18
2023-04-16T01:56:53.338Z,4.25
2023-04-16T01:59:21.967Z,4.32
2023-04-16T02:01:50.812Z,4.68
2023-04-16T02:04:20.506Z,4.43
2023-04-16T02:06:49.353Z,5.32
2023-04-16T02:09:18.087Z,5.40
2023-04-16T02:11:47.385Z,5.55
2023-04-16T02:14:17.443Z,5.80
2023-04-16T02:16:45.934Z,5.75
2023-04-16T02:19:14.500Z,6.20
2023-04-16T02:21:43.198Z,6.53
2023-04-16T02:24:11.966Z,5.68
2023-04-16T02:26:40.654Z,6.10
2023-04-16T02:29:09.546Z,5.60
2023-04-16T02:31:40.388Z,5.63
2023-04-16T02:34:09.055Z,6.13
2023-04-16T02:36:37.976Z,6.30
2023-04-16T02:39:07.053Z,6.25
2023-04-16T02:41:35.734Z,5.50
2023-04-16T02:44:04.615Z,5.45
2023-04-16T02:46:33.172Z,5.47
2023-04-16T02:49:03.490Z,5.85
2023-04-16T02:51:33.530Z,6.13
2023-04-16T02:54:03.628Z,6.85
2023-04-16T02:56:32.489Z,7.70
2023-04-16T02:59:01.485Z,7.32
2023-04-16T03:01:30.219Z,7.85
2023-04-16T03:03:58.995Z,7.70
2023-04-16T03:06:29.221Z,8.45
2023-04-16T03:08:57.813Z,7.90
2023-04-16T03:11:26.401Z,8.73
2023-04-16T03:13:55.100Z,8.05
2023-04-16T03:16:23.913Z,8.38
2023-04-16T03:18:52.676Z,8.60
2023-04-16T03:21:21.343Z,8.15
2023-04-16T03:23:53.670Z,8.70
2023-04-16T03:26:22.383Z,8.88
2023-04-16T03:28:51.041Z,9.35
2023-04-16T03:31:19.766Z,10.10
2023-04-16T03:33:48.377Z,9.10
2023-04-16T03:36:16.960Z,9.45
2023-04-16T03:38:45.550Z,10.57
2023-04-16T03:41:15.588Z,9.20
2023-04-16T03:43:44.224Z,9.50
2023-04-16T03:46:12.845Z,9.70
2023-04-16T03:48:41.394Z,9.23
2023-04-16T03:51:09.905Z,8.98
2023-04-16T03:53:38.665Z,9.25
2023-04-16T03:56:07.745Z,8.95
2023-04-16T03:58:37.804Z,8.52
2023-04-16T04:01:06.659Z,8.50
2023-04-16T04:03:35.470Z,8.18
2023-04-16T04:06:08.653Z,8.52
2023-04-16T04:08:37.261Z,8.05
2023-04-16T04:11:06.096Z,7.75
2023-04-16T04:13:34.652Z,7.32
2023-04-16T04:16:05.738Z,7.75
2023-04-16T04:18:34.443Z,7.35
2023-04-16T04:21:07.557Z,7.30
2023-04-16T04:23:36.384Z,7.50
2023-04-16T04:26:05.935Z,6.65
2023-04-16T04:28:35.551Z,6.80
2023-04-16T04:31:06.447Z,6.68
2023-04-16T04:33:35.395Z,6.55
2023-04-16T04:36:04.307Z,6.75
2023-04-16T04:38:33.210Z,6.85
2023-04-16T04:41:01.747Z,7.38
2023-04-16T04:43:30.336Z,7.18
2023-04-16T04:45:59.014Z,6.47
2023-04-16T04:48:29.068Z,6.75
2023-04-16T04:50:57.758Z,6.55
2023-04-16T04:53:26.417Z,7.35
2023-04-16T04:55:57.576Z,7.00
2023-04-16T04:58:34.088Z,6.70
2023-04-16T05:01:02.767Z,7.30
2023-04-16T05:03:33.416Z,7.63
2023-04-16T05:06:02.195Z,7.22
2023-04-16T05:08:30.885Z,7.38
2023-04-16T05:10:59.465Z,7.18
2023-04-16T05:13:28.091Z,7.95
2023-04-16T05:15:56.653Z,7.95
2023-04-16T05:18:24.950Z,7.90
2023-04-16T05:20:54.958Z,7.45
2023-04-16T05:23:23.516Z,7.65
2023-04-16T05:25:52.167Z,7.70
2023-04-16T05:28:20.552Z,8.00
2023-04-16T05:30:49.149Z,7.75
2023-04-16T05:33:17.820Z,8.15
2023-04-16T05:35:46.457Z,7.88
2023-04-16T05:38:16.673Z,7.80
2023-04-16T05:40:45.078Z,8.50
2023-04-16T05:43:13.596Z,7.75
2023-04-16T05:45:42.355Z,7.93
2023-04-16T05:48:11.582Z,8.30
2023-04-16T05:50:40.240Z,8.30
2023-04-16T05:53:10.434Z,7.78
2023-04-16T05:55:41.001Z,8.07
2023-04-16T05:58:09.741Z,8.60
2023-04-16T06:00:38.364Z,8.43
2023-04-16T06:03:07.103Z,7.75
2023-04-16T06:05:36.538Z,8.55
2023-04-16T06:08:06.459Z,7.97
2023-04-16T06:10:35.154Z,9.13
2023-04-16T06:13:06.432Z,8.85
2023-04-16T06:15:35.057Z,8.73
2023-04-16T06:18:03.671Z,8.70
2023-04-16T06:20:32.448Z,8.98
2023-04-16T06:23:01.104Z,8.10
2023-04-16T06:25:30.070Z,8.48
2023-04-16T06:27:58.724Z,8.40
2023-04-16T06:30:28.857Z,6.25
2023-04-16T06:32:57.460Z,4.53
2023-04-16T06:35:25.795Z,3.33
2023-04-16T06:37:54.311Z,2.90
2023-04-16T06:40:22.883Z,2.70
2023-04-16T06:42:51.682Z,2.53
2023-04-16T06:45:20.263Z,2.80
2023-04-16T06:47:51.719Z,2.50
2023-04-16T06:50:23.832Z,2.40
2023-04-16T06:52:52.373Z,2.60
2023-04-16T06:55:21.050Z,2.35
2023-04-16T06:57:49.816Z,2.20
2023-04-16T07:00:18.744Z,2.30
2023-04-16T07:02:47.714Z,2.10
2023-04-16T07:05:18.008Z,2.28
2023-04-16T07:07:46.542Z,2.42
2023-04-16T07:10:15.485Z,2.70
2023-04-16T07:12:44.163Z,2.47
2023-04-16T07:15:13.190Z,2.90
2023-04-16T07:17:42.020Z,2.78
2023-04-16T07:20:11.473Z,2.83
2023-04-16T07:22:41.629Z,3.08
2023-04-16T07:25:10.959Z,3.60
2023-04-16T07:27:39.650Z,4.40
2023-04-16T07:30:09.538Z,4.25
2023-04-16T07:32:38.250Z,5.25
2023-04-16T07:35:07.477Z,4.75
2023-04-16T07:37:36.123Z,4.95
2023-04-16T07:40:07.204Z,4.65
2023-04-16T07:42:36.165Z,3.60
2023-04-16T07:45:07.837Z,2.67
2023-04-16T07:47:36.569Z,2.58
2023-04-16T07:50:05.785Z,2.60
2023-04-16T07:52:34.459Z,2.40
2023-04-16T07:55:03.214Z,2.63
2023-04-16T07:57:33.420Z,2.40
2023-04-16T08:00:02.377Z,2.50
2023-04-16T08:02:31.549Z,2.50
2023-04-16T08:05:00.404Z,2.08
2023-04-16T08:07:29.120Z,2.45
2023-04-16T08:09:57.773Z,2.40
2023-04-16T08:12:26.579Z,2.65
2023-04-16T08:14:56.761Z,2.22
2023-04-16T08:17:25.646Z,2.15
2023-04-16T08:19:54.540Z,2.80
2023-04-16T08:22:23.170Z,2.28
2023-04-16T08:24:51.923Z,2.20
2023-04-16T08:27:20.914Z,2.47
2023-04-16T08:29:50.201Z,2.20
2023-04-16T08:32:20.827Z,2.40
2023-04-16T08:34:49.518Z,2.42
2023-04-16T08:37:18.143Z,2.30
2023-04-16T08:39:46.522Z,2.50
2023-04-16T08:42:21.669Z,2.30
2023-04-16T08:44:54.554Z,2.28
2023-04-16T08:47:32.250Z,2.50
2023-04-16T08:50:02.544Z,2.20
2023-04-16T08:52:33.361Z,2.28
2023-04-16T08:55:07.519Z,2.28
2023-04-16T08:57:45.018Z,2.30
2023-04-16T09:00:15.184Z,3.10
2023-04-16T09:02:45.513Z,3.50
2023-04-16T09:05:19.819Z,2.60
2023-04-16T09:07:51.569Z,2.28
2023-04-16T09:10:21.950Z,2.35
2023-04-16T09:12:50.672Z,2.78
2023-04-16T09:15:22.157Z,2.15
2023-04-16T09:17:52.954Z,2.30
2023-04-16T09:20:22.314Z,2.20
2023-04-16T09:22:51.239Z,2.10
2023-04-16T09:25:22.677Z,2.65
2023-04-16T09:27:52.525Z,2.25
2023-04-16T09:30:23.715Z,2.40
2023-04-16T09:33:17.756Z,1.80
2023-04-16T09:35:56.102Z,2.10
2023-04-16T09:38:26.945Z,2.00
2023-04-16T09:41:09.101Z,2.40
2023-04-16T09:43:40.925Z,2.17
2023-04-16T09:46:13.179Z,2.97
2023-04-16T09:48:47.394Z,2.28
2023-04-16T09:51:16.379Z,3.13
2023-04-16T09:53:45.121Z,2.40
2023-04-16T09:56:14.510Z,2.30
2023-04-16T09:58:45.847Z,2.30
2023-04-16T10:01:16.658Z,2.28
2023-04-16T10:03:53.218Z,2.45
2023-04-16T10:06:25.672Z,2.45
2023-04-16T10:08:57.481Z,2.55
2023-04-16T10:11:27.418Z,2.80
2023-04-16T10:14:04.026Z,1.90
2023-04-16T10:16:41.928Z,2.50
2023-04-16T10:19:18.707Z,2.28
2023-04-16T10:21:48.862Z,2.50
2023-04-16T10:24:20.993Z,2.97
2023-04-16T10:26:53.632Z,2.67
2023-04-16T10:29:26.179Z,2.28
2023-04-16T10:31:55.676Z,1.98
2023-04-16T10:34:27.653Z,2.13
2023-04-16T10:36:56.925Z,2.40
2023-04-16T10:39:28.830Z,2.35
2023-04-16T10:42:09.852Z,2.35
2023-04-16T10:44:38.643Z,2.28
2023-04-16T10:47:13.814Z,2.60
2023-04-16T10:49:58.362Z,2.20
2023-04-16T10:52:33.359Z,2.25
2023-04-16T10:55:04.682Z,2.45
2023-04-16T10:57:33.467Z,2.35
2023-04-16T11:00:23.073Z,2.60
2023-04-16T11:02:55.414Z,3.00
2023-04-16T11:05:52.220Z,2.35
2023-04-16T11:08:26.382Z,1.90
2023-04-16T11:11:02.231Z,2.30
2023-04-16T11:13:31.102Z,2.30
2023-04-16T11:16:00.391Z,2.17
2023-04-16T11:18:29.506Z,2.55
2023-04-16T11:21:00.376Z,2.25
2023-04-16T11:23:29.252Z,2.15
2023-04-16T11:25:58.818Z,2.08
2023-04-16T11:28:37.290Z,2.40
2023-04-16T11:31:13.664Z,2.20
2023-04-16T11:33:42.390Z,2.38
2023-04-16T11:36:12.503Z,2.28
2023-04-16T11:38:43.241Z,2.30
2023-04-16T11:41:12.477Z,2.22
2023-04-16T11:43:41.085Z,2.45
2023-04-16T11:46:24.160Z,2.17
2023-04-16T11:48:56.963Z,2.42
2023-04-16T11:51:27.195Z,1.88
2023-04-16T11:53:56.398Z,2.53
2023-04-16T11:56:30.100Z,2.30
2023-04-16T11:59:10.088Z,2.47
2023-04-16T12:01:41.098Z,2.10
2023-04-16T12:04:10.874Z,2.47
2023-04-16T12:06:41.522Z,2.20
2023-04-16T12:09:26.470Z,2.38
2023-04-16T12:11:55.633Z,2.10
2023-04-16T12:14:25.577Z,2.30
2023-04-16T12:16:54.741Z,2.40
2023-04-16T12:19:23.702Z,2.47
2023-04-16T12:21:55.330Z,2.10
2023-04-16T12:24:27.730Z,2.50
2023-04-16T12:26:57.740Z,2.53
2023-04-16T12:29:28.357Z,2.00
2023-04-16T12:31:57.098Z,2.40
2023-04-16T12:34:49.185Z,2.90
2023-04-16T12:37:17.447Z,2.38
2023-04-16T12:39:47.932Z,2.40
2023-04-16T12:42:16.750Z,2.58
2023-04-16T12:44:45.333Z,2.38
2023-04-16T12:47:13.971Z,2.40
2023-04-16T12:49:42.581Z,2.33
2023-04-16T12:52:11.631Z,2.35
2023-04-16T12:54:42.719Z,2.63
2023-04-16T12:57:12.182Z,2.55
2023-04-16T12:59:40.723Z,2.50
2023-04-16T13:02:09.841Z,3.00
2023-04-16T13:04:38.792Z,3.08
2023-04-16T13:07:08.308Z,3.58
2023-04-16T13:09:39.149Z,2.55
2023-04-16T13:12:10.394Z,2.53
2023-04-16T13:14:39.396Z,2.58
2023-04-16T13:17:07.993Z,2.42
2023-04-16T13:19:36.688Z,2.28
2023-04-16T13:22:05.352Z,2.28
2023-04-16T13:24:34.047Z,2.17
2023-04-16T13:27:02.798Z,2.33
2023-04-16T13:29:32.961Z,2.50
2023-04-16T13:32:02.016Z,2.10
2023-04-16T13:34:30.830Z,2.60
2023-04-16T13:36:59.554Z,2.05
2023-04-16T13:39:28.310Z,2.20
2023-04-16T13:41:56.875Z,2.03
2023-04-16T13:44:25.565Z,2.10
2023-04-16T13:46:56.418Z,2.30
2023-04-16T13:49:25.203Z,2.08
2023-04-16T13:51:53.771Z,2.38
2023-04-16T13:54:22.391Z,2.20
2023-04-16T13:56:52.372Z,2.00
2023-04-16T13:59:21.019Z,2.15
2023-04-16T14:01:49.621Z,1.77
2023-04-16T14:04:20.053Z,2.17
2023-04-16T14:06:51.045Z,2.03
2023-04-16T14:09:20.192Z,1.80
2023-04-16T14:11:48.852Z,1.77
2023-04-16T14:14:18.729Z,1.65
2023-04-16T14:16:47.413Z,2.05
2023-04-16T14:19:16.157Z,2.10
2023-04-16T14:21:47.556Z,1.90
2023-04-16T14:24:16.190Z,2.30
2023-04-16T14:26:45.537Z,2.03
2023-04-16T14:29:15.059Z,1.85
2023-04-16T14:31:44.941Z,1.85
2023-04-16T14:34:13.504Z,1.92
2023-04-16T14:36:42.413Z,2.00
2023-04-16T14:39:13.029Z,1.98
2023-04-16T14:41:41.807Z,2.15
2023-04-16T14:44:11.554Z,1.88
2023-04-16T14:46:44.246Z,1.73
2023-04-16T14:49:14.728Z,1.65
2023-04-16T14:51:44.424Z,1.75
2023-04-16T14:54:14.658Z,2.00
2023-04-16T14:56:43.421Z,2.00
2023-04-16T14:59:12.193Z,1.90
2023-04-16T15:01:41.933Z,1.75
2023-04-16T15:04:10.982Z,2.20
2023-04-16T15:06:39.680Z,2.20
2023-04-16T15:09:09.799Z,2.60
2023-04-16T15:11:41.256Z,2.60
2023-04-16T15:14:10.207Z,2.60
2023-04-16T15:16:39.372Z,2.45
2023-04-16T15:19:08.157Z,3.00
2023-04-16T15:21:38.006Z,3.00
2023-04-16T15:24:07.264Z,2.97
2023-04-16T15:26:36.030Z,3.03
2023-04-16T15:29:06.357Z,3.10
2023-04-16T15:31:35.042Z,3.05
2023-04-16T15:34:04.095Z,3.08
2023-04-16T15:36:33.084Z,3.30
2023-04-16T15:39:01.886Z,3.53
2023-04-16T15:41:32.086Z,4.07
2023-04-16T15:44:01.130Z,3.63
2023-04-16T15:46:32.674Z,3.55
2023-04-16T15:49:01.528Z,3.80
2023-04-16T15:51:31.800Z,3.50
2023-04-16T15:54:00.859Z,3.53
2023-04-16T15:56:29.491Z,3.00
2023-04-16T15:58:58.037Z,3.25
2023-04-16T16:01:26.922Z,2.58
2023-04-16T16:03:57.725Z,2.70
2023-04-16T16:06:27.405Z,2.60
2023-04-16T16:08:56.142Z,2.50
2023-04-16T16:12:01.299Z,2.45
2023-04-16T16:14:32.197Z,2.78
2023-04-16T16:17:01.268Z,2.60
2023-04-16T16:19:31.925Z,2.45
2023-04-16T16:22:01.201Z,2.22
2023-04-16T16:24:30.402Z,2.38
2023-04-16T16:26:59.255Z,1.85
2023-04-16T16:29:28.006Z,2.30
2023-04-16T16:31:56.969Z,2.50
2023-04-16T16:34:26.466Z,2.75
2023-04-16T16:36:56.889Z,2.55
2023-04-16T16:39:26.872Z,2.90
2023-04-16T16:41:57.247Z,3.03
2023-04-16T16:44:25.812Z,3.13
2023-04-16T16:46:54.472Z,3.00
2023-04-16T16:49:23.112Z,3.75
2023-04-16T16:51:51.846Z,3.65
2023-04-16T16:54:23.147Z,3.38
2023-04-16T16:56:51.999Z,3.35
2023-04-16T16:59:20.813Z,3.60
2023-04-16T17:01:49.448Z,3.42
2023-04-16T17:04:20.496Z,3.40
2023-04-16T17:06:49.566Z,3.75
2023-04-16T17:09:18.357Z,3.80
2023-04-16T17:11:48.510Z,3.70
2023-04-16T17:14:17.467Z,3.85
2023-04-16T17:16:46.884Z,3.42
2023-04-16T17:19:15.764Z,3.72
2023-04-16T17:21:44.759Z,3.38
2023-04-16T17:24:13.727Z,3.40
2023-04-16T17:26:42.460Z,3.28
2023-04-16T17:29:12.591Z,3.38
2023-04-16T17:31:41.245Z,3.13
2023-04-16T17:34:10.563Z,3.20
2023-04-16T17:36:39.627Z,3.20
2023-04-16T17:39:08.214Z,3.20
2023-04-16T17:41:37.302Z,2.83
2023-04-16T17:44:06.421Z,3.22
2023-04-16T17:46:37.802Z,3.28
2023-04-16T17:49:06.767Z,3.10
2023-04-16T17:51:35.460Z,3.05
2023-04-16T17:54:04.631Z,3.03
2023-04-16T17:56:33.513Z,3.80
2023-04-16T17:59:02.527Z,3.05
2023-04-16T18:01:31.550Z,2.90
2023-04-16T18:04:03.304Z,3.20
2023-04-16T18:06:32.534Z,3.60
2023-04-16T18:09:01.746Z,3.92
2023-04-16T18:11:31.276Z,3.60
2023-04-16T18:14:00.057Z,3.65
2023-04-16T18:16:28.888Z,3.85
2023-04-16T18:18:57.756Z,4.00
2023-04-16T18:21:28.521Z,3.75
2023-04-16T18:24:00.893Z,3.50
2023-04-16T18:26:30.069Z,3.53
2023-04-16T18:28:58.797Z,4.40
2023-04-16T18:31:28.020Z,3.95
2023-04-16T18:33:58.264Z,4.10
2023-04-16T18:36:28.880Z,3.95
2023-04-16T18:39:01.601Z,4.18
2023-04-16T18:41:44.462Z,3.90
2023-04-16T18:44:13.255Z,3.80
2023-04-16T18:46:41.956Z,4.30
2023-04-16T18:49:10.902Z,4.00
2023-04-16T18:51:42.246Z,4.18
2023-04-16T18:54:11.200Z,4.47
2023-04-16T18:56:39.824Z,4.95
2023-04-16T18:59:08.667Z,4.85
2023-04-16T19:01:40.533Z,5.32
2023-04-16T19:04:09.324Z,5.40
2023-04-16T19:06:38.109Z,6.70
2023-04-16T19:09:10.832Z,7.68
2023-04-16T19:11:40.668Z,7.25
2023-04-16T19:14:09.313Z,6.95
2023-04-16T19:16:40.838Z,7.25
2023-04-16T19:19:09.975Z,8.88
2023-04-16T19:21:38.719Z,9.18
2023-04-16T19:24:09.299Z,9.77
2023-04-16T19:26:40.306Z,9.18
2023-04-16T19:29:09.141Z,9.10
2023-04-16T19:31:37.984Z,8.75
2023-04-16T19:34:06.947Z,8.15
2023-04-16T19:36:35.984Z,7.65
2023-04-16T19:39:05.116Z,8.38
2023-04-16T19:41:35.347Z,10.52
2023-04-16T19:44:03.992Z,10.63
2023-04-16T19:46:33.865Z,8.77
2023-04-16T19:49:02.499Z,10.70
2023-04-16T19:51:31.440Z,8.57
2023-04-16T19:54:00.126Z,8.57
2023-04-16T19:56:28.894Z,8.10
2023-04-16T19:58:59.612Z,7.22
2023-04-16T20:01:28.387Z,7.30
2023-04-16T20:03:58.062Z,8.35
2023-04-16T20:06:27.249Z,7.85
2023-04-16T20:08:56.946Z,9.20
2023-04-16T20:11:27.040Z,11.65
2023-04-16T20:13:56.719Z,11.10
2023-04-16T20:16:27.059Z,10.15
2023-04-16T20:18:55.876Z,10.00
2023-04-16T20:21:25.461Z,9.68
2023-04-16T20:23:54.338Z,9.82
2023-04-16T20:26:25.101Z,10.38
2023-04-16T20:28:53.683Z,9.52
2023-04-16T20:31:22.685Z,8.25
2023-04-16T20:33:53.013Z,8.70
2023-04-16T20:36:21.835Z,9.98
2023-04-16T20:38:53.237Z,16.42
2023-04-16T20:41:22.809Z,12.88
2023-04-16T20:43:53.132Z,12.95
2023-04-16T20:46:24.798Z,14.10
2023-04-16T20:48:55.542Z,12.80
2023-04-16T20:51:24.037Z,11.80
2023-04-16T20:53:53.148Z,12.15
2023-04-16T20:56:21.950Z,9.82
2023-04-16T20:58:53.446Z,10.02
2023-04-16T21:01:22.076Z,9.60
2023-04-16T21:03:51.542Z,10.20
2023-04-16T21:06:22.829Z,11.60
2023-04-16T21:08:54.568Z,12.27
2023-04-16T21:11:23.783Z,13.85
2023-04-16T21:13:53.540Z,15.77
2023-04-16T21:16:22.286Z,15.10
2023-04-16T21:18:52.831Z,14.82
2023-04-16T21:21:23.071Z,14.75
2023-04-16T21:23:52.213Z,15.55
2023-04-16T21:26:20.924Z,15.32
2023-04-16T21:28:49.617Z,14.13
2023-04-16T21:31:19.290Z,14.73
2023-04-16T21:33:48.658Z,15.27
2023-04-16T21:36:17.312Z,14.85
2023-04-16T21:38:48.085Z,15.82
2023-04-16T21:41:17.902Z,15.98
2023-04-16T21:43:47.823Z,15.80
2023-04-16T21:46:19.629Z,15.32
2023-04-16T21:48:49.958Z,16.40
2023-04-16T21:51:20.408Z,16.63
2023-04-16T21:53:51.123Z,16.90
2023-04-16T21:56:20.647Z,16.17
2023-04-16T21:58:49.513Z,15.00
2023-04-16T22:01:21.070Z,14.45
2023-04-16T22:03:52.442Z,13.73
2023-04-16T22:06:21.941Z,12.48
2023-04-16T22:08:54.890Z,12.27
2023-04-16T22:11:23.453Z,12.15
2023-04-16T22:13:52.149Z,11.85
2023-04-16T22:16:20.892Z,11.30
2023-04-16T22:18:49.616Z,11.00
2023-04-16T22:21:18.878Z,10.55
2023-04-16T22:23:48.539Z,9.80
2023-04-16T22:26:18.703Z,10.02
2023-04-16T22:28:47.709Z,10.45
2023-04-16T22:31:16.524Z,10.95
2023-04-16T22:33:46.314Z,11.43
2023-04-16T22:36:14.997Z,10.63
2023-04-16T22:38:43.434Z,10.05
2023-04-16T22:41:12.049Z,10.43
2023-04-16T22:43:43.481Z,11.00
2023-04-16T22:46:11.992Z,10.82
2023-04-16T22:48:40.729Z,10.77
2023-04-16T22:51:10.417Z,10.48
2023-04-16T22:53:39.130Z,10.80
2023-04-16T22:56:08.574Z,11.15
2023-04-16T22:58:37.565Z,10.65
2023-04-16T23:01:08.105Z,10.70
2023-04-16T23:03:37.131Z,10.63
2023-04-16T23:06:06.921Z,10.88
2023-04-16T23:08:35.880Z,10.90
2023-04-16T23:11:04.473Z,10.20
2023-04-16T23:13:33.030Z,10.60
2023-04-16T23:16:01.769Z,10.35
2023-04-16T23:18:33.304Z,10.85
2023-04-16T23:21:01.880Z,11.63
2023-04-16T23:23:30.407Z,11.73
2023-04-16T23:25:59.067Z,11.40
2023-04-16T23:28:27.838Z,11.30
2023-04-16T23:30:56.434Z,11.05
2023-04-16T23:33:26.218Z,11.50
2023-04-16T23:35:56.286Z,11.68
2023-04-16T23:38:24.801Z,11.23
2023-04-16T23:40:53.308Z,10.98
2023-04-16T23:43:21.746Z,11.32
2023-04-16T23:45:50.709Z,12.00
2023-04-16T23:48:19.456Z,11.82
2023-04-16T23:50:48.017Z,12.07
2023-04-16T23:53:18.450Z,11.63
2023-04-16T23:55:48.372Z,12.30
2023-04-16T23:58:16.878Z,12.13
